Flugplatz Stade

EDHS · 下萨克森, 德国

2022年10月4日 14:002022年10月4日 23:00有效
时间
星期二
14:00
星期二
15:00
星期二
16:00
星期二
17:00
星期二
18:00
星期二
19:00
星期二
20:00
星期二
21:00
星期二
22:00
代码
VFR
VFR
VFR
VFR
VFR
VFR
VFR
VFR
VFR
天气
天空晴朗
天空晴朗
天空晴朗
天空晴朗
天空晴朗
天空晴朗
天空晴朗
天空晴朗
天空晴朗
能见度
10 km+
10 km+
10 km+
10 km+
10 km+
10 km+
10 km+
10 km+
10 km+
天花板
-
-
-
-
-
-
-
-
-
210°
210°
210°
210°
210°
210°
210°
210°
210°
210°
210°
210°
210°
210°
210°
210°
210°
210°
速度
8 kt
8 kt
8 kt
8 kt
8 kt
8 kt
8 kt
8 kt
8 kt
阵风
温度/星期日
18:50

原版的

TAF EDHI 041100Z 0412/0421 21008KT 9999 SCT025

TAF Stade Airport

Stade Airport是Stade,德国中的小机场。 该机场有一条跑道: 11/29. 该领域的国际民航组织标志是EDHS.

这份报告是针对2022年10月4日 13:00, 当地时间在Hamburg-Finkenwerder Airport进行的。 从2022年10月4日 14:00到2022年10月4日 23:00, 当地时间有效.

预报

  • 在星期二 14:00和23:00之间

    • 风: 风来自210°方向,速度为8 kt。
    • 能见度: 10 km 或者更多
    • 乌云: 疏云,零星散落的云朵在2.500 ft的高度.

白天

今天,太阳从07:29升起,在18:52降落。 这适用于Stade Airport,世界夏令时可能有所不同。 当地时间与世界标准时间之间的时差为+2 小时。 夏令时目前正在进行中。

我们和第三方通过cookies跟踪您在我们网站上的上网行为。如果您继续,我们认为您同意我们的cookie政策。 了解更多